Terminal Aerodrome Forecast
Issued by NWS Charleston, WV

Current Version | Previous Version | Text Only | Print | Product List | Glossary Off
Versions: 1 2 3 4 5 6 7 8 9 10 11 12 13 14 15 16 17 18 19 20 21 22 23 24 25 26 27 28 29

000
FTUS41 KRLX 202300
TAFEKN
TAF
KEKN 202325Z 2100/2124 19005KT 2SM -RA BKN025 BKN040 OVC060
     FM210030 00000KT 6SM BR SCT025 BKN040 BKN060
     FM210300 00000KT 6SM BR BKN120
     FM210600 VRB03KT 3SM BR SCT080
     FM210800 00000KT 1SM BR SCT070
     FM210900 00000KT 1/2SM FG OVC001
     FM211200 00000KT 3SM BR SCT002 SCT070
     FM211500 VRB03KT P6SM SCT050
     FM212000 14004KT P6SM VCSH BKN050=

USA.gov is the U.S. government's official web portal to all federal, state and local government web resources and services.